This is the latest recevied weather packets stored in our database for station/object W4TJP. If no packets are shown the sender has not sent any weather packets the latest 1 day(s).
| Time | Temp. | Humidity | Pressure | Rain* | Wind** | Luminosity | Snow |
|---|---|---|---|---|---|---|---|
| 1778011927 | 21.67° C | 52% | 1010.9 hPa | 0 mm | 1.34 m/s, 89° | 384 W/m² | - |
| 1778011616 | 21.11° C | 52% | 1011.4 hPa | 0 mm | 0.45 m/s, 150° | 222 W/m² | - |
| 1778011313 | 21.11° C | 53% | 1011.7 hPa | 0 mm | 0 m/s | 98 W/m² | - |
| 1778011009 | 21.11° C | 53% | 1011.6 hPa | 0 mm | 0.45 m/s, 234° | 85 W/m² | - |
| 1778010706 | 21.11° C | 55% | 1011.4 hPa | 0 mm | 0 m/s | 99 W/m² | - |
| 1778010404 | 21.67° C | 53% | 1011.6 hPa | 0 mm | 0.45 m/s, 126° | 148 W/m² | - |
| 1778010099 | 21.67° C | 54% | 1011.8 hPa | 0 mm | 0.45 m/s, 179° | 171 W/m² | - |
| 1778009796 | 22.22° C | 52% | 1011.6 hPa | 0 mm | 0 m/s | 153 W/m² | - |
| 1778009493 | 22.22° C | 51% | 1011.7 hPa | 0 mm | 0 m/s | 235 W/m² | - |
| 1778009192 | 22.78° C | 50% | 1011.7 hPa | 0 mm | 0.45 m/s, 108° | 261 W/m² | - |
| 1778008889 | 22.78° C | 52% | 1011.7 hPa | 0 mm | 0.89 m/s, 95° | 582 W/m² | - |
| 1778008587 | 22.78° C | 50% | 1012.1 hPa | 0 mm | 1.34 m/s, 137° | 227 W/m² | - |
| 1778008285 | 23.33° C | 51% | 1012.4 hPa | 0 mm | 1.34 m/s, 98° | 561 W/m² | - |
| 1778007981 | 22.22° C | 54% | 1012.4 hPa | 0 mm | 0 m/s | 675 W/m² | - |
| 1778007675 | 20.56° C | 55% | 1012.2 hPa | 0 mm | 0.45 m/s, 177° | 601 W/m² | - |
| 1778007373 | 21.11° C | 55% | 1012.1 hPa | 0 mm | 0.89 m/s, 107° | 159 W/m² | - |
| 1778007069 | 21.11° C | 55% | 1012.2 hPa | 0 mm | 0.45 m/s, 145° | 260 W/m² | - |
| 1778006766 | 21.11° C | 60% | 1012.2 hPa | 0 mm | 0.45 m/s, 143° | 197 W/m² | - |
| 1778006463 | 21.11° C | 57% | 1012.4 hPa | 0 mm | 0.45 m/s, 150° | 185 W/m² | - |
| 1778006159 | 21.11° C | 57% | 1012.3 hPa | 0 mm | 0.45 m/s, 84° | 247 W/m² | - |
| 1778005857 | 21.11° C | 57% | 1012.2 hPa | 0 mm | 0.45 m/s, 75° | 311 W/m² | - |
| 1778005553 | 20.56° C | 57% | 1012.3 hPa | 0 mm | 0.45 m/s, 136° | 200 W/m² | - |
| 1778005250 | 21.11° C | 56% | 1012.5 hPa | 0 mm | 1.34 m/s, 113° | 226 W/m² | - |
| 1778004946 | 21.11° C | 56% | 1012.5 hPa | 0 mm | 0.45 m/s, 154° | 243 W/m² | - |
| 1778004644 | 21.11° C | 57% | 1012.6 hPa | 0 mm | 0 m/s | 187 W/m² | - |
* Rain latest hour (hover to see other rain measurements)
** Current wind speed in m/s (hover to see current wind gust speed)